sensor_id;sensor_type;location;lat;lon;timestamp;pressure;altitude;pressure_sealevel;temperature;humidity
69574;BME280;62840;52.366;5.980;2023-07-28T00:01:10;100324.00;;;18.81;76.92
69574;BME280;62840;52.366;5.980;2023-07-28T00:03:36;100333.78;;;18.82;77.26
69574;BME280;62840;52.366;5.980;2023-07-28T00:06:01;100325.69;;;18.82;77.20
69574;BME280;62840;52.366;5.980;2023-07-28T00:08:27;100330.22;;;18.81;77.16
69574;BME280;62840;52.366;5.980;2023-07-28T00:10:55;100335.63;;;18.81;76.65
69574;BME280;62840;52.366;5.980;2023-07-28T00:13:21;100324.00;;;18.81;77.04
69574;BME280;62840;52.366;5.980;2023-07-28T00:15:47;100330.22;;;18.81;76.94
69574;BME280;62840;52.366;5.980;2023-07-28T00:18:13;100330.22;;;18.81;76.73
69574;BME280;62840;52.366;5.980;2023-07-28T00:20:39;100328.56;;;18.80;76.99
69574;BME280;62840;52.366;5.980;2023-07-28T00:23:04;100333.97;;;18.80;76.82
69574;BME280;62840;52.366;5.980;2023-07-28T00:25:30;100337.69;;;18.79;76.90
69574;BME280;62840;52.366;5.980;2023-07-28T00:27:58;100332.28;;;18.79;76.78
69574;BME280;62840;52.366;5.980;2023-07-28T00:30:24;100331.44;;;18.79;77.23
69574;BME280;62840;52.366;5.980;2023-07-28T00:32:50;100333.13;;;18.80;76.72
69574;BME280;62840;52.366;5.980;2023-07-28T00:35:16;100333.97;;;18.80;76.77
69574;BME280;62840;52.366;5.980;2023-07-28T00:37:41;100336.66;;;18.80;77.10
69574;BME280;62840;52.366;5.980;2023-07-28T00:40:08;100331.09;;;18.82;77.01
69574;BME280;62840;52.366;5.980;2023-07-28T00:42:34;100341.69;;;18.83;76.84
69574;BME280;62840;52.366;5.980;2023-07-28T00:45:03;100331.72;;;18.84;77.26
69574;BME280;62840;52.366;5.980;2023-07-28T00:47:30;100331.50;;;18.85;77.11
69574;BME280;62840;52.366;5.980;2023-07-28T00:49:56;100336.72;;;18.87;77.10
69574;BME280;62840;52.366;5.980;2023-07-28T00:52:22;100326.09;;;18.85;77.25
69574;BME280;62840;52.366;5.980;2023-07-28T00:54:47;100323.63;;;18.84;76.75
69574;BME280;62840;52.366;5.980;2023-07-28T00:57:13;100316.34;;;18.84;77.30
69574;BME280;62840;52.366;5.980;2023-07-28T00:59:39;100313.66;;;18.84;77.23
69574;BME280;62840;52.366;5.980;2023-07-28T01:02:08;100326.09;;;18.85;76.82
69574;BME280;62840;52.366;5.980;2023-07-28T01:04:34;100319.03;;;18.84;76.83
69574;BME280;62840;52.366;5.980;2023-07-28T01:07:05;100323.63;;;18.84;76.82
69574;BME280;62840;52.366;5.980;2023-07-28T01:09:42;100330.88;;;18.83;77.05
69574;BME280;62840;52.366;5.980;2023-07-28T01:12:15;100331.91;;;18.82;76.79
69574;BME280;62840;52.366;5.980;2023-07-28T01:14:40;100333.97;;;18.80;76.84
69574;BME280;62840;52.366;5.980;2023-07-28T01:17:09;100341.03;;;18.81;76.79
69574;BME280;62840;52.366;5.980;2023-07-28T01:19:35;100347.28;;;18.82;76.99
69574;BME280;62840;52.366;5.980;2023-07-28T01:22:16;100348.94;;;18.83;76.96
69574;BME280;62840;52.366;5.980;2023-07-28T01:25:08;100339.38;;;18.80;77.30
69574;BME280;62840;52.366;5.980;2023-07-28T01:27:46;100345.59;;;18.81;77.08
69574;BME280;62840;52.366;5.980;2023-07-28T01:30:14;100337.69;;;18.79;77.02
69574;BME280;62840;52.366;5.980;2023-07-28T01:32:40;100338.72;;;18.78;76.80
69574;BME280;62840;52.366;5.980;2023-07-28T01:35:07;100331.44;;;18.79;76.98
69574;BME280;62840;52.366;5.980;2023-07-28T01:37:33;100336.84;;;18.79;76.93
69574;BME280;62840;52.366;5.980;2023-07-28T01:39:59;100336.03;;;18.78;76.88
69574;BME280;62840;52.366;5.980;2023-07-28T01:42:25;100338.72;;;18.78;77.32
69574;BME280;62840;52.366;5.980;2023-07-28T01:44:53;100342.47;;;18.77;76.77
69574;BME280;62840;52.366;5.980;2023-07-28T01:47:19;100347.22;;;18.75;77.03
69574;BME280;62840;52.366;5.980;2023-07-28T01:49:44;100339.31;;;18.73;77.23
69574;BME280;62840;52.366;5.980;2023-07-28T01:52:10;100341.81;;;18.75;76.87
69574;BME280;62840;52.366;5.980;2023-07-28T01:54:36;100342.00;;;18.73;77.39
69574;BME280;62840;52.366;5.980;2023-07-28T01:57:02;100335.13;;;18.71;77.29
69574;BME280;62840;52.366;5.980;2023-07-28T01:59:28;100345.94;;;18.71;77.22
69574;BME280;62840;52.366;5.980;2023-07-28T02:01:56;100342.41;;;18.70;77.02
69574;BME280;62840;52.366;5.980;2023-07-28T02:04:22;100355.06;;;18.70;76.87
69574;BME280;62840;52.366;5.980;2023-07-28T02:06:47;100349.66;;;18.70;77.04
69574;BME280;62840;52.366;5.980;2023-07-28T02:09:13;100341.72;;;18.68;77.25
69574;BME280;62840;52.366;5.980;2023-07-28T02:11:39;100350.00;;;18.67;77.11
69574;BME280;62840;52.366;5.980;2023-07-28T02:14:05;100351.06;;;18.66;77.23
69574;BME280;62840;52.366;5.980;2023-07-28T02:16:30;100353.75;;;18.66;77.11
69574;BME280;62840;52.366;5.980;2023-07-28T02:18:58;100348.53;;;18.64;76.89
69574;BME280;62840;52.366;5.980;2023-07-28T02:21:24;100345.00;;;18.64;77.03
69574;BME280;62840;52.366;5.980;2023-07-28T02:23:50;100345.66;;;18.66;76.72
69574;BME280;62840;52.366;5.980;2023-07-28T02:26:16;100348.34;;;18.66;77.19
69574;BME280;62840;52.366;5.980;2023-07-28T02:28:41;100342.94;;;18.66;76.99
69574;BME280;62840;52.366;5.980;2023-07-28T02:31:07;100348.34;;;18.66;77.22
69574;BME280;62840;52.366;5.980;2023-07-28T02:33:33;100345.84;;;18.64;77.17
69574;BME280;62840;52.366;5.980;2023-07-28T02:36:01;100343.31;;;18.63;76.91
69574;BME280;62840;52.366;5.980;2023-07-28T02:38:27;100350.41;;;18.64;77.07
69574;BME280;62840;52.366;5.980;2023-07-28T02:40:53;100352.06;;;18.65;77.08
69574;BME280;62840;52.366;5.980;2023-07-28T02:43:19;100350.41;;;18.64;76.97
69574;BME280;62840;52.366;5.980;2023-07-28T02:45:48;100347.50;;;18.65;77.16
69574;BME280;62840;52.366;5.980;2023-07-28T02:48:13;100354.59;;;18.66;76.87
69574;BME280;62840;52.366;5.980;2023-07-28T02:50:45;100355.41;;;18.67;77.13
69574;BME280;62840;52.366;5.980;2023-07-28T02:53:14;100350.00;;;18.67;76.93
69574;BME280;62840;52.366;5.980;2023-07-28T02:55:41;100357.06;;;18.68;77.08
69574;BME280;62840;52.366;5.980;2023-07-28T02:58:07;100353.41;;;18.69;76.82
69574;BME280;62840;52.366;5.980;2023-07-28T03:00:32;100359.63;;;18.69;77.34
69574;BME280;62840;52.366;5.980;2023-07-28T03:02:58;100355.06;;;18.70;77.36
69574;BME280;62840;52.366;5.980;2023-07-28T03:05:24;100364.19;;;18.69;76.98
69574;BME280;62840;52.366;5.980;2023-07-28T03:07:50;100355.06;;;18.70;77.40
69574;BME280;62840;52.366;5.980;2023-07-28T03:10:18;100369.41;;;18.70;77.10
69574;BME280;62840;52.366;5.980;2023-07-28T03:12:44;100365.84;;;18.70;77.39
69574;BME280;62840;52.366;5.980;2023-07-28T03:15:10;100366.91;;;18.69;76.97
69574;BME280;62840;52.366;5.980;2023-07-28T03:17:35;100372.13;;;18.70;77.01
69574;BME280;62840;52.366;5.980;2023-07-28T03:20:01;100367.53;;;18.71;77.32
69574;BME280;62840;52.366;5.980;2023-07-28T03:22:27;100381.69;;;18.73;77.27
69574;BME280;62840;52.366;5.980;2023-07-28T03:24:53;100380.00;;;18.72;77.42
69574;BME280;62840;52.366;5.980;2023-07-28T03:27:21;100380.88;;;18.72;77.11
69574;BME280;62840;52.366;5.980;2023-07-28T03:29:47;100376.28;;;18.73;77.02
69574;BME280;62840;52.366;5.980;2023-07-28T03:32:13;100379.66;;;18.75;77.09
69574;BME280;62840;52.366;5.980;2023-07-28T03:34:38;100386.72;;;18.76;77.23
69574;BME280;62840;52.366;5.980;2023-07-28T03:37:04;100377.59;;;18.77;77.11
69574;BME280;62840;52.366;5.980;2023-07-28T03:39:30;100384.66;;;18.78;77.07
69574;BME280;62840;52.366;5.980;2023-07-28T03:41:56;100378.22;;;18.79;76.90
69574;BME280;62840;52.366;5.980;2023-07-28T03:44:25;100386.31;;;18.79;76.90
69574;BME280;62840;52.366;5.980;2023-07-28T03:46:51;100388.00;;;18.80;77.18
69574;BME280;62840;52.366;5.980;2023-07-28T03:49:17;100379.72;;;18.82;77.30
69574;BME280;62840;52.366;5.980;2023-07-28T03:51:43;100376.81;;;18.83;77.31
69574;BME280;62840;52.366;5.980;2023-07-28T03:54:08;100382.19;;;18.83;76.95
69574;BME280;62840;52.366;5.980;2023-07-28T03:56:34;100384.91;;;18.83;77.26
69574;BME280;62840;52.366;5.980;2023-07-28T03:59:00;100383.06;;;18.84;77.10
69574;BME280;62840;52.366;5.980;2023-07-28T04:01:28;100386.59;;;18.84;77.26
69574;BME280;62840;52.366;5.980;2023-07-28T04:03:54;100389.28;;;18.84;77.30
69574;BME280;62840;52.366;5.980;2023-07-28T04:06:39;100390.13;;;18.85;76.87
69574;BME280;62840;52.366;5.980;2023-07-28T04:09:06;100393.00;;;18.83;77.14
69574;BME280;62840;52.366;5.980;2023-07-28T04:11:31;100396.75;;;18.82;77.30
69574;BME280;62840;52.366;5.980;2023-07-28T04:13:57;100396.75;;;18.82;76.92
69574;BME280;62840;52.366;5.980;2023-07-28T04:16:23;100399.47;;;18.82;77.39
69574;BME280;62840;52.366;5.980;2023-07-28T04:18:51;100395.06;;;18.81;77.18
69574;BME280;62840;52.366;5.980;2023-07-28T04:21:17;100404.22;;;18.80;77.38
69574;BME280;62840;52.366;5.980;2023-07-28T04:23:43;100409.63;;;18.80;77.18
69574;BME280;62840;52.366;5.980;2023-07-28T04:26:08;100411.28;;;18.81;77.35
69574;BME280;62840;52.366;5.980;2023-07-28T04:28:34;100411.28;;;18.81;77.09
69574;BME280;62840;52.366;5.980;2023-07-28T04:31:00;100407.56;;;18.82;76.85
69574;BME280;62840;52.366;5.980;2023-07-28T04:33:26;100414.63;;;18.83;77.45
69574;BME280;62840;52.366;5.980;2023-07-28T04:35:54;100414.63;;;18.83;77.14
69574;BME280;62840;52.366;5.980;2023-07-28T04:38:20;100410.91;;;18.84;77.23
69574;BME280;62840;52.366;5.980;2023-07-28T04:40:46;100418.63;;;18.87;76.83
69574;BME280;62840;52.366;5.980;2023-07-28T04:43:11;100416.56;;;18.89;77.37
69574;BME280;62840;52.366;5.980;2023-07-28T04:45:37;100420.09;;;18.90;77.38
69574;BME280;62840;52.366;5.980;2023-07-28T04:48:03;100429.03;;;18.90;77.18
69574;BME280;62840;52.366;5.980;2023-07-28T04:50:30;100428.03;;;18.91;77.36
69574;BME280;62840;52.366;5.980;2023-07-28T04:52:58;100424.28;;;18.92;77.31
69574;BME280;62840;52.366;5.980;2023-07-28T04:55:24;100428.03;;;18.91;77.05
69574;BME280;62840;52.366;5.980;2023-07-28T04:57:49;100424.28;;;18.92;77.15
69574;BME280;62840;52.366;5.980;2023-07-28T05:00:16;100427.63;;;18.94;77.11
69574;BME280;62840;52.366;5.980;2023-07-28T05:02:42;100433.03;;;18.94;77.40
69574;BME280;62840;52.366;5.980;2023-07-28T05:05:08;100433.69;;;18.96;77.36
69574;BME280;62840;52.366;5.980;2023-07-28T05:07:33;100424.56;;;18.98;77.03
69574;BME280;62840;52.366;5.980;2023-07-28T05:10:02;100432.66;;;18.98;77.07
69574;BME280;62840;52.366;5.980;2023-07-28T05:12:28;100427.28;;;18.98;77.04
69574;BME280;62840;52.366;5.980;2023-07-28T05:14:54;100427.91;;;19.00;77.09
69574;BME280;62840;52.366;5.980;2023-07-28T05:17:19;100435.16;;;18.99;77.35
69574;BME280;62840;52.366;5.980;2023-07-28T05:19:45;100432.28;;;19.01;77.16
69574;BME280;62840;52.366;5.980;2023-07-28T05:22:11;100433.94;;;19.02;77.06
69574;BME280;62840;52.366;5.980;2023-07-28T05:24:36;100437.28;;;19.04;77.05
69574;BME280;62840;52.366;5.980;2023-07-28T05:27:05;100435.22;;;19.06;77.14
69574;BME280;62840;52.366;5.980;2023-07-28T05:29:31;100435.22;;;19.06;76.96
69574;BME280;62840;52.366;5.980;2023-07-28T05:31:58;100433.19;;;19.08;77.11
69574;BME280;62840;52.366;5.980;2023-07-28T05:34:24;100442.75;;;19.10;77.48
69574;BME280;62840;52.366;5.980;2023-07-28T05:36:50;100434.47;;;19.12;77.20
69574;BME280;62840;52.366;5.980;2023-07-28T05:39:15;100436.16;;;19.13;77.04
69574;BME280;62840;52.366;5.980;2023-07-28T05:41:41;100432.41;;;19.14;77.41
69574;BME280;62840;52.366;5.980;2023-07-28T05:44:10;100439.47;;;19.15;77.50
69574;BME280;62840;52.366;5.980;2023-07-28T05:46:35;100435.75;;;19.16;77.34
69574;BME280;62840;52.366;5.980;2023-07-28T05:49:01;100435.38;;;19.19;76.96
69574;BME280;62840;52.366;5.980;2023-07-28T05:51:27;100440.41;;;19.22;77.19
69574;BME280;62840;52.366;5.980;2023-07-28T05:53:54;100443.75;;;19.24;77.55
69574;BME280;62840;52.366;5.980;2023-07-28T05:56:20;100438.34;;;19.24;77.53
69574;BME280;62840;52.366;5.980;2023-07-28T05:58:46;100440.84;;;19.26;77.15
69574;BME280;62840;52.366;5.980;2023-07-28T06:01:15;100452.47;;;19.26;77.38
69574;BME280;62840;52.366;5.980;2023-07-28T06:03:41;100445.00;;;19.28;77.25
69574;BME280;62840;52.366;5.980;2023-07-28T06:06:07;100450.41;;;19.28;77.11
69574;BME280;62840;52.366;5.980;2023-07-28T06:08:33;100453.78;;;19.30;77.06
69574;BME280;62840;52.366;5.980;2023-07-28T06:10:59;100457.53;;;19.29;77.63
69574;BME280;62840;52.366;5.980;2023-07-28T06:13:25;100461.06;;;19.30;77.23
69574;BME280;62840;52.366;5.980;2023-07-28T06:15:53;100460.88;;;19.31;77.30
69574;BME280;62840;52.366;5.980;2023-07-28T06:18:21;100466.06;;;19.33;77.20
69574;BME280;62840;52.366;5.980;2023-07-28T06:20:47;100465.06;;;19.34;77.38
69574;BME280;62840;52.366;5.980;2023-07-28T06:23:14;100477.34;;;19.36;77.28
69574;BME280;62840;52.366;5.980;2023-07-28T06:25:39;100470.88;;;19.37;77.24
69574;BME280;62840;52.366;5.980;2023-07-28T06:28:05;100470.88;;;19.37;77.34
69574;BME280;62840;52.366;5.980;2023-07-28T06:30:31;100478.81;;;19.39;77.42
69574;BME280;62840;52.366;5.980;2023-07-28T06:32:57;100485.06;;;19.39;77.03
69574;BME280;62840;52.366;5.980;2023-07-28T06:35:25;100485.69;;;19.42;77.18
69574;BME280;62840;52.366;5.980;2023-07-28T06:37:51;100495.50;;;19.43;77.35
69574;BME280;62840;52.366;5.980;2023-07-28T06:40:16;100499.88;;;19.44;77.05
69574;BME280;62840;52.366;5.980;2023-07-28T06:42:42;100499.69;;;19.45;77.28
69574;BME280;62840;52.366;5.980;2023-07-28T06:45:09;100502.56;;;19.44;77.26
69574;BME280;62840;52.366;5.980;2023-07-28T06:47:35;100504.28;;;19.45;77.32
69574;BME280;62840;52.366;5.980;2023-07-28T06:50:00;100500.53;;;19.46;77.29
69574;BME280;62840;52.366;5.980;2023-07-28T06:52:29;100502.22;;;19.47;77.35
69574;BME280;62840;52.366;5.980;2023-07-28T06:54:54;100511.34;;;19.46;77.18
69574;BME280;62840;52.366;5.980;2023-07-28T06:57:20;100520.09;;;19.48;77.61
69574;BME280;62840;52.366;5.980;2023-07-28T06:59:46;100521.75;;;19.49;77.46
69574;BME280;62840;52.366;5.980;2023-07-28T07:02:11;100530.53;;;19.51;77.07
69574;BME280;62840;52.366;5.980;2023-07-28T07:04:37;100526.81;;;19.52;77.17
69574;BME280;62840;52.366;5.980;2023-07-28T07:07:03;100529.50;;;19.52;77.53
69574;BME280;62840;52.366;5.980;2023-07-28T07:09:32;100534.91;;;19.52;77.20
69574;BME280;62840;52.366;5.980;2023-07-28T07:11:57;100533.88;;;19.53;77.22
69574;BME280;62840;52.366;5.980;2023-07-28T07:14:23;100529.28;;;19.53;77.08
69574;BME280;62840;52.366;5.980;2023-07-28T07:16:49;100535.56;;;19.54;77.41
69574;BME280;62840;52.366;5.980;2023-07-28T07:19:15;100548.03;;;19.55;77.24
69574;BME280;62840;52.366;5.980;2023-07-28T07:21:41;100545.19;;;19.56;77.20
69574;BME280;62840;52.366;5.980;2023-07-28T07:24:07;100551.44;;;19.57;77.36
69574;BME280;62840;52.366;5.980;2023-07-28T07:26:35;100545.19;;;19.56;77.12
69574;BME280;62840;52.366;5.980;2023-07-28T07:29:01;100548.03;;;19.55;77.28
69574;BME280;62840;52.366;5.980;2023-07-28T07:31:27;100546.38;;;19.54;77.40
69574;BME280;62840;52.366;5.980;2023-07-28T07:33:53;100558.22;;;19.53;77.54
69574;BME280;62840;52.366;5.980;2023-07-28T07:36:19;100548.44;;;19.52;77.17
69574;BME280;62840;52.366;5.980;2023-07-28T07:38:45;100557.56;;;19.51;77.70
69574;BME280;62840;52.366;5.980;2023-07-28T07:41:11;100561.75;;;19.53;77.34
69574;BME280;62840;52.366;5.980;2023-07-28T07:43:40;100560.91;;;19.53;77.26
69574;BME280;62840;52.366;5.980;2023-07-28T07:46:05;100564.28;;;19.55;77.61
69574;BME280;62840;52.366;5.980;2023-07-28T07:48:31;100568.84;;;19.54;77.32
69574;BME280;62840;52.366;5.980;2023-07-28T07:50:57;100558.88;;;19.55;77.11
69574;BME280;62840;52.366;5.980;2023-07-28T07:53:24;100567.66;;;19.57;77.66
69574;BME280;62840;52.366;5.980;2023-07-28T07:55:50;100565.97;;;19.56;77.37
69574;BME280;62840;52.366;5.980;2023-07-28T07:58:16;100568.66;;;19.56;77.37
69574;BME280;62840;52.366;5.980;2023-07-28T08:00:44;100567.66;;;19.57;77.58
69574;BME280;62840;52.366;5.980;2023-07-28T08:03:10;100571.38;;;19.56;77.44
69574;BME280;62840;52.366;5.980;2023-07-28T08:05:35;100574.25;;;19.54;77.35
69574;BME280;62840;52.366;5.980;2023-07-28T08:08:02;100580.50;;;19.55;77.51
69574;BME280;62840;52.366;5.980;2023-07-28T08:10:28;100581.56;;;19.54;77.38
69574;BME280;62840;52.366;5.980;2023-07-28T08:12:55;100589.66;;;19.54;77.70
69574;BME280;62840;52.366;5.980;2023-07-28T08:15:21;100585.91;;;19.55;77.33
69574;BME280;62840;52.366;5.980;2023-07-28T08:17:49;100587.59;;;19.56;77.33
69574;BME280;62840;52.366;5.980;2023-07-28T08:20:15;100580.50;;;19.55;77.23
69574;BME280;62840;52.366;5.980;2023-07-28T08:22:41;100593.03;;;19.56;77.65
69574;BME280;62840;52.366;5.980;2023-07-28T08:25:07;100592.00;;;19.57;77.39
69574;BME280;62840;52.366;5.980;2023-07-28T08:27:33;100598.44;;;19.56;77.17
69574;BME280;62840;52.366;5.980;2023-07-28T08:29:58;100601.13;;;19.56;77.61
69574;BME280;62840;52.366;5.980;2023-07-28T08:32:24;100601.81;;;19.58;77.31
69574;BME280;62840;52.366;5.980;2023-07-28T08:34:53;100601.59;;;19.59;77.55
69574;BME280;62840;52.366;5.980;2023-07-28T08:37:19;100599.72;;;19.60;77.29
69574;BME280;62840;52.366;5.980;2023-07-28T08:39:45;100605.13;;;19.60;77.19
69574;BME280;62840;52.366;5.980;2023-07-28T08:42:11;100605.13;;;19.60;77.19
69574;BME280;62840;52.366;5.980;2023-07-28T08:44:36;100617.66;;;19.61;77.70
69574;BME280;62840;52.366;5.980;2023-07-28T08:47:03;100617.66;;;19.61;77.43
69574;BME280;62840;52.366;5.980;2023-07-28T08:49:30;100608.50;;;19.62;77.60
69574;BME280;62840;52.366;5.980;2023-07-28T08:52:00;100611.84;;;19.64;77.18
69574;BME280;62840;52.366;5.980;2023-07-28T08:54:27;100613.53;;;19.65;77.36
69574;BME280;62840;52.366;5.980;2023-07-28T08:56:53;100615.19;;;19.66;77.33
69574;BME280;62840;52.366;5.980;2023-07-28T08:59:21;100622.31;;;19.67;77.50
69574;BME280;62840;52.366;5.980;2023-07-28T09:01:49;100621.06;;;19.70;77.25
69574;BME280;62840;52.366;5.980;2023-07-28T09:04:15;100620.03;;;19.71;77.29
69574;BME280;62840;52.366;5.980;2023-07-28T09:06:44;100621.50;;;19.73;77.52
69574;BME280;62840;52.366;5.980;2023-07-28T09:09:13;100623.19;;;19.74;77.33
69574;BME280;62840;52.366;5.980;2023-07-28T09:11:44;100621.16;;;19.76;77.42
69574;BME280;62840;52.366;5.980;2023-07-28T09:14:12;100611.97;;;19.77;77.70
69574;BME280;62840;52.366;5.980;2023-07-28T09:16:38;100620.75;;;19.79;77.37
69574;BME280;62840;52.366;5.980;2023-07-28T09:44:34;100638.69;;;19.81;77.93
69574;BME280;62840;52.366;5.980;2023-07-28T09:47:00;100634.94;;;19.82;77.37
69574;BME280;62840;52.366;5.980;2023-07-28T09:49:28;100639.94;;;19.85;77.88
69574;BME280;62840;52.366;5.980;2023-07-28T09:52:04;100639.94;;;19.85;77.56
69574;BME280;62840;52.366;5.980;2023-07-28T09:54:36;100628.94;;;19.86;77.72
69574;BME280;62840;52.366;5.980;2023-07-28T09:57:10;100629.41;;;19.90;78.08
69574;BME280;62840;52.366;5.980;2023-07-28T09:59:41;100627.94;;;19.94;78.11
69574;BME280;62840;52.366;5.980;2023-07-28T10:02:07;100636.34;;;19.99;77.88
69574;BME280;62840;52.366;5.980;2023-07-28T10:04:34;100634.72;;;20.05;78.05
69574;BME280;62840;52.366;5.980;2023-07-28T10:07:01;100630.19;;;20.12;77.64
69574;BME280;62840;52.366;5.980;2023-07-28T10:09:30;100632.31;;;20.16;77.73
69574;BME280;62840;52.366;5.980;2023-07-28T10:11:56;100635.31;;;20.21;77.83
69574;BME280;62840;52.366;5.980;2023-07-28T10:14:26;100632.84;;;20.27;77.85
69574;BME280;62840;52.366;5.980;2023-07-28T10:16:56;100635.38;;;20.28;77.70
69574;BME280;62840;52.366;5.980;2023-07-28T10:19:24;100636.84;;;20.31;77.44
69574;BME280;62840;52.366;5.980;2023-07-28T10:21:59;100636.66;;;20.32;77.27
69574;BME280;62840;52.366;5.980;2023-07-28T10:24:49;100633.72;;;20.34;77.65
69574;BME280;62840;52.366;5.980;2023-07-28T10:27:28;100631.00;;;20.34;77.38
69574;BME280;62840;52.366;5.980;2023-07-28T10:29:58;100630.00;;;20.35;77.35
69574;BME280;62840;52.366;5.980;2023-07-28T10:32:36;100626.69;;;20.39;77.40
69574;BME280;62840;52.366;5.980;2023-07-28T10:35:07;100628.00;;;20.44;77.59
69574;BME280;62840;52.366;5.980;2023-07-28T10:37:35;100629.72;;;20.51;76.91
69574;BME280;62840;52.366;5.980;2023-07-28T10:40:22;100628.94;;;20.57;77.53
69574;BME280;62840;52.366;5.980;2023-07-28T10:42:58;100631.44;;;20.59;77.35
69574;BME280;62840;52.366;5.980;2023-07-28T10:45:25;100638.31;;;20.61;77.61
69574;BME280;62840;52.366;5.980;2023-07-28T10:47:56;100630.66;;;20.65;77.62
69574;BME280;62840;52.366;5.980;2023-07-28T10:50:23;100633.41;;;20.72;77.25
69574;BME280;62840;52.366;5.980;2023-07-28T10:52:49;100622.59;;;20.78;77.02
69574;BME280;62840;52.366;5.980;2023-07-28T10:55:16;100627.63;;;20.81;76.78
69574;BME280;62840;52.366;5.980;2023-07-28T10:57:44;100620.34;;;20.82;77.30
69574;BME280;62840;52.366;5.980;2023-07-28T11:00:12;100627.00;;;20.86;76.89
69574;BME280;62840;52.366;5.980;2023-07-28T11:02:41;100626.22;;;20.92;76.71
69574;BME280;62840;52.366;5.980;2023-07-28T11:05:13;100623.34;;;21.00;77.18
69574;BME280;62840;52.366;5.980;2023-07-28T11:07:44;100624.22;;;21.08;77.29
69574;BME280;62840;52.366;5.980;2023-07-28T11:10:10;100625.53;;;21.18;76.87
69574;BME280;62840;52.366;5.980;2023-07-28T11:12:39;100622.66;;;21.27;76.81
69574;BME280;62840;52.366;5.980;2023-07-28T11:15:08;100637.28;;;21.32;76.36
69574;BME280;62840;52.366;5.980;2023-07-28T11:17:35;100629.38;;;21.37;75.93
69574;BME280;62840;52.366;5.980;2023-07-28T11:20:02;100637.13;;;21.40;75.92
69574;BME280;62840;52.366;5.980;2023-07-28T11:22:31;100634.81;;;21.44;76.25
69574;BME280;62840;52.366;5.980;2023-07-28T11:24:57;100631.91;;;21.45;75.69
69574;BME280;62840;52.366;5.980;2023-07-28T11:27:24;100630.22;;;21.44;75.82
69574;BME280;62840;52.366;5.980;2023-07-28T11:29:50;100637.34;;;21.45;75.31
69574;BME280;62840;52.366;5.980;2023-07-28T11:32:16;100631.50;;;21.49;75.77
69574;BME280;62840;52.366;5.980;2023-07-28T11:34:41;100625.88;;;21.50;75.00
69574;BME280;62840;52.366;5.980;2023-07-28T11:37:07;100626.91;;;21.56;75.48
69574;BME280;62840;52.366;5.980;2023-07-28T11:39:36;100632.59;;;21.61;75.64
69574;BME280;62840;52.366;5.980;2023-07-28T11:42:03;100640.31;;;21.64;75.20
69574;BME280;62840;52.366;5.980;2023-07-28T11:44:30;100629.03;;;21.67;75.28
69574;BME280;62840;52.366;5.980;2023-07-28T11:46:55;100633.03;;;21.71;74.79
69574;BME280;62840;52.366;5.980;2023-07-28T11:49:21;100635.34;;;21.74;74.48
69574;BME280;62840;52.366;5.980;2023-07-28T11:51:49;100632.41;;;21.76;74.64
69574;BME280;62840;52.366;5.980;2023-07-28T11:54:17;100628.66;;;21.77;74.93
69574;BME280;62840;52.366;5.980;2023-07-28T11:56:49;100631.16;;;21.78;74.86
69574;BME280;62840;52.366;5.980;2023-07-28T11:59:17;100629.06;;;21.80;75.12
69574;BME280;62840;52.366;5.980;2023-07-28T12:01:54;100626.59;;;21.85;74.39
69574;BME280;62840;52.366;5.980;2023-07-28T12:04:22;100627.44;;;21.93;74.62
69574;BME280;62840;52.366;5.980;2023-07-28T12:07:01;100628.31;;;22.00;74.41
69574;BME280;62840;52.366;5.980;2023-07-28T12:09:28;100632.91;;;22.06;74.75
69574;BME280;62840;52.366;5.980;2023-07-28T12:11:57;100633.75;;;22.13;74.17
69574;BME280;62840;52.366;5.980;2023-07-28T12:14:31;100629.34;;;22.19;74.11
69574;BME280;62840;52.366;5.980;2023-07-28T12:16:57;100637.91;;;22.22;74.23
69574;BME280;62840;52.366;5.980;2023-07-28T12:19:24;100642.28;;;22.23;74.16
69574;BME280;62840;52.366;5.980;2023-07-28T12:21:50;100637.91;;;22.22;73.23
69574;BME280;62840;52.366;5.980;2023-07-28T12:24:16;100648.16;;;22.20;73.36
69574;BME280;62840;52.366;5.980;2023-07-28T12:26:42;100652.13;;;22.18;72.98
69574;BME280;62840;52.366;5.980;2023-07-28T12:29:10;100650.69;;;22.15;72.09
69574;BME280;62840;52.366;5.980;2023-07-28T12:31:36;100649.22;;;22.13;72.23
69574;BME280;62840;52.366;5.980;2023-07-28T12:34:02;100656.09;;;22.15;72.16
69574;BME280;62840;52.366;5.980;2023-07-28T12:36:27;100648.59;;;22.17;71.91
69574;BME280;62840;52.366;5.980;2023-07-28T12:38:53;100650.88;;;22.20;71.75
69574;BME280;62840;52.366;5.980;2023-07-28T12:41:19;100649.81;;;22.21;72.06
69574;BME280;62840;52.366;5.980;2023-07-28T12:43:44;100652.53;;;22.21;71.69
69574;BME280;62840;52.366;5.980;2023-07-28T12:46:13;100656.94;;;22.22;71.19
69574;BME280;62840;52.366;5.980;2023-07-28T12:48:38;100660.91;;;22.20;71.14
69574;BME280;62840;52.366;5.980;2023-07-28T12:51:04;100656.75;;;22.17;71.30
69574;BME280;62840;52.366;5.980;2023-07-28T12:53:30;100665.91;;;22.16;72.01
69574;BME280;62840;52.366;5.980;2023-07-28T12:55:56;100670.50;;;22.16;72.00
69574;BME280;62840;52.366;5.980;2023-07-28T12:58:22;100659.22;;;22.19;71.95
69574;BME280;62840;52.366;5.980;2023-07-28T13:00:47;100664.47;;;22.20;71.54
69574;BME280;62840;52.366;5.980;2023-07-28T13:03:16;100672.81;;;22.19;71.82
69574;BME280;62840;52.366;5.980;2023-07-28T13:05:41;100678.47;;;22.17;71.58
69574;BME280;62840;52.366;5.980;2023-07-28T13:08:07;100673.44;;;22.14;71.56
69574;BME280;62840;52.366;5.980;2023-07-28T13:10:33;100661.31;;;22.10;71.32
69574;BME280;62840;52.366;5.980;2023-07-28T13:12:59;100667.16;;;22.07;71.30
69574;BME280;62840;52.366;5.980;2023-07-28T13:15:24;100660.47;;;22.03;71.75